LFMK/CCF METAR and TAF weather

Enter ICAO airport designator
Station Type Date Time Source
LFMK METAR 2018/12/11 23:00 UTC NOAA

LFMK 112300Z AUTO 30002KT 9000 NSC 02/00 Q1021


Station Type Date Time Source
LFMK Decoded METAR 2018/12/11 23:00 UTC NOAA

Carcassonne, France (LFMK) 43-13N 002-19E 130M
Dec 11, 2018 - 06:00 PM EST / 2018.12.11 2300 UTC
Wind: from the WNW (300 degrees) at 2 MPH (2 KT):0
Visibility: 5 mile(s):0
Temperature: 35 F (2 C)
Dew Point: 32 F (0 C)
Relative Humidity: 86%
Pressure (altimeter): 30.15 in. Hg (1021 hPa)
ob: LFMK 112300Z AUTO 30002KT 9000 NSC 02/00 Q1021
cycle: 23

Station Type Date Time Source
LFMK TAF 2018/12/11 18:06 UTC NOAA

TAF TAF LFMK 111800Z 1118/1215 CNL


Example: see airport list